createdAt,value
2023-04-01T00:01:19.056Z,11.40
2023-04-01T00:06:19.574Z,11.40
2023-04-01T00:11:18.395Z,11.40
2023-04-01T00:16:22.256Z,11.50
2023-04-01T00:21:22.986Z,11.60
2023-04-01T00:26:22.722Z,11.60
2023-04-01T00:31:22.821Z,11.60
2023-04-01T00:36:24.431Z,11.60
2023-04-01T00:41:23.077Z,11.60
2023-04-01T00:46:22.808Z,11.40
2023-04-01T00:51:24.427Z,11.40
2023-04-01T00:56:26.300Z,11.30
2023-04-01T01:01:26.751Z,11.30
2023-04-01T01:06:40.171Z,11.30
2023-04-01T01:11:43.709Z,11.30
2023-04-01T01:16:47.567Z,11.30
2023-04-01T01:22:06.968Z,11.20
2023-04-01T01:27:07.101Z,11.30
2023-04-01T01:32:13.190Z,11.40
2023-04-01T01:37:15.684Z,11.40
2023-04-01T01:42:18.897Z,11.50
2023-04-01T01:47:19.211Z,11.60
2023-04-01T01:52:19.713Z,11.60
2023-04-01T01:57:20.091Z,11.60
2023-04-01T02:02:25.019Z,11.60
2023-04-01T02:07:28.487Z,11.60
2023-04-01T02:12:27.303Z,11.70
2023-04-01T02:17:28.900Z,11.70
2023-04-01T02:22:31.740Z,11.70
2023-04-01T02:27:30.627Z,11.70
2023-04-01T02:32:30.770Z,11.70
2023-04-01T02:37:31.091Z,11.70
2023-04-01T02:42:30.237Z,11.70
2023-04-01T02:47:28.581Z,11.70
2023-04-01T02:52:26.963Z,11.80
2023-04-01T02:57:27.739Z,11.80
2023-04-01T03:02:26.424Z,11.90
2023-04-01T03:07:24.552Z,11.80
2023-04-01T03:12:22.954Z,11.80
2023-04-01T03:17:24.788Z,11.80
2023-04-01T03:22:23.286Z,12.00
2023-04-01T03:27:21.880Z,11.80
2023-04-01T03:32:19.994Z,11.80
2023-04-01T03:37:19.936Z,11.80
2023-04-01T03:42:18.287Z,11.80
2023-04-01T03:47:16.551Z,11.80
2023-04-01T03:52:15.615Z,11.80
2023-04-01T03:57:15.610Z,11.80
2023-04-01T04:02:14.078Z,11.70
2023-04-01T04:07:13.492Z,11.70
2023-04-01T04:12:48.420Z,11.70
2023-04-01T04:17:47.792Z,11.70
2023-04-01T04:22:47.070Z,11.70
2023-04-01T04:27:46.694Z,11.80
2023-04-01T04:32:46.675Z,11.80
2023-04-01T04:37:45.040Z,11.80
2023-04-01T04:42:43.459Z,11.80
2023-04-01T04:47:46.677Z,11.80
2023-04-01T04:52:44.978Z,11.80
2023-04-01T04:57:43.288Z,11.70
2023-04-01T05:02:41.771Z,11.80
2023-04-01T05:07:41.433Z,11.80
2023-04-01T05:12:39.994Z,11.80
2023-04-01T05:17:40.452Z,11.80
2023-04-01T05:22:38.571Z,11.90
2023-04-01T05:27:38.389Z,11.80
2023-04-01T05:32:36.765Z,11.90
2023-04-01T05:37:35.940Z,11.90
2023-04-01T05:42:38.103Z,11.90
2023-04-01T05:47:38.114Z,12.00
2023-04-01T05:52:36.538Z,12.00
2023-04-01T05:57:34.911Z,11.90
2023-04-01T06:02:33.293Z,11.70
2023-04-01T06:07:33.082Z,11.70
2023-04-01T06:12:50.133Z,11.80
2023-04-01T06:18:03.647Z,12.00
2023-04-01T06:23:22.433Z,12.00
2023-04-01T06:28:56.209Z,12.00
2023-04-01T06:34:07.609Z,11.90
2023-04-01T06:39:24.993Z,11.90
2023-04-01T06:44:35.909Z,11.90
2023-04-01T06:49:59.421Z,12.00
2023-04-01T06:55:38.934Z,12.10
2023-04-01T07:00:46.864Z,12.10
2023-04-01T07:05:46.007Z,12.20
2023-04-01T07:10:50.119Z,12.30
2023-04-01T07:21:37.022Z,12.70
2023-04-01T07:26:48.213Z,12.70
2023-04-01T07:32:11.812Z,12.90
2023-04-01T07:37:14.487Z,13.20
2023-04-01T07:42:25.303Z,13.70
2023-04-01T07:47:36.752Z,13.90
2023-04-01T07:52:42.419Z,13.90
2023-04-01T07:57:58.196Z,13.90
2023-04-01T08:03:15.615Z,13.80
2023-04-01T08:08:21.748Z,13.80
2023-04-01T08:13:46.356Z,13.70
2023-04-01T08:18:56.545Z,13.50
2023-04-01T08:23:58.529Z,13.50
2023-04-01T08:29:02.496Z,13.50
2023-04-01T08:34:05.866Z,13.40
2023-04-01T08:39:11.660Z,13.30
2023-04-01T08:44:46.088Z,13.10
2023-04-01T08:50:21.839Z,13.10
2023-04-01T08:55:40.829Z,13.20
2023-04-01T09:00:51.716Z,13.60
2023-04-01T09:06:37.078Z,13.80
2023-04-01T09:11:54.331Z,13.90
2023-04-01T09:17:30.808Z,14.00
2023-04-01T09:22:50.779Z,13.80
2023-04-01T09:27:59.615Z,13.30
2023-04-01T09:33:29.091Z,13.00
2023-04-01T09:38:32.930Z,12.90
2023-04-01T09:43:39.841Z,12.70
2023-04-01T09:49:16.738Z,12.50
2023-04-01T09:54:29.066Z,12.40
2023-04-01T09:59:49.484Z,12.40
2023-04-01T10:05:34.993Z,12.40
2023-04-01T10:10:57.083Z,12.50
2023-04-01T10:16:15.970Z,12.40
2023-04-01T10:21:27.079Z,12.20
2023-04-01T10:26:51.397Z,12.20
2023-04-01T10:32:54.848Z,12.20
2023-04-01T10:38:12.129Z,12.20
2023-04-01T10:43:53.018Z,12.20
2023-04-01T10:49:51.041Z,12.20
2023-04-01T10:55:00.995Z,12.30
2023-04-01T11:00:40.645Z,12.40
2023-04-01T11:06:43.478Z,12.40
2023-04-01T11:12:30.770Z,12.50
2023-04-01T11:18:00.620Z,12.60
2023-04-01T11:23:24.570Z,12.70
2023-04-01T11:29:00.533Z,12.70
2023-04-01T11:34:14.184Z,12.60
2023-04-01T11:39:27.489Z,12.40
2023-04-01T11:44:42.003Z,12.20
2023-04-01T11:50:03.816Z,12.20
2023-04-01T11:55:27.101Z,12.00
2023-04-01T12:00:44.672Z,11.90
2023-04-01T12:05:50.669Z,11.90
2023-04-01T12:10:54.270Z,11.90
2023-04-01T12:16:04.816Z,11.90
2023-04-01T12:21:11.818Z,11.80
2023-04-01T12:26:31.320Z,11.70
2023-04-01T12:31:38.755Z,11.60
2023-04-01T12:36:51.238Z,11.60
2023-04-01T12:41:57.449Z,11.50
2023-04-01T12:47:12.188Z,11.50
2023-04-01T12:52:14.180Z,11.50
2023-04-01T12:57:29.451Z,11.60
2023-04-01T13:02:40.129Z,11.80
2023-04-01T13:08:01.396Z,11.70
2023-04-01T13:13:28.251Z,11.60
2023-04-01T13:18:34.377Z,11.60
2023-04-01T13:23:49.921Z,11.70
2023-04-01T13:28:56.262Z,11.70
2023-04-01T13:34:11.178Z,11.60
2023-04-01T13:39:24.213Z,11.50
2023-04-01T13:44:29.795Z,11.40
2023-04-01T13:50:04.117Z,11.30
2023-04-01T13:55:25.577Z,11.30
2023-04-01T14:00:47.612Z,11.30
2023-04-01T14:05:54.952Z,11.30
2023-04-01T14:11:05.462Z,11.10
2023-04-01T14:16:16.715Z,11.30
2023-04-01T14:21:23.608Z,11.00
2023-04-01T14:26:52.378Z,10.90
2023-04-01T14:32:04.530Z,10.80
2023-04-01T14:37:25.513Z,10.70
2023-04-01T14:42:47.394Z,10.50
2023-04-01T14:47:52.109Z,10.40
2023-04-01T14:52:59.253Z,10.30
2023-04-01T14:58:10.022Z,10.20
2023-04-01T15:03:16.968Z,10.30
2023-04-01T15:08:21.058Z,10.30
2023-04-01T15:13:37.797Z,10.20
2023-04-01T15:18:46.508Z,10.10
2023-04-01T15:23:56.588Z,10.00
2023-04-01T15:29:24.352Z,9.90
2023-04-01T15:34:39.539Z,9.90
2023-04-01T15:39:52.469Z,9.80
2023-04-01T15:45:02.435Z,9.80
2023-04-01T15:50:17.007Z,9.70
2023-04-01T15:55:23.274Z,9.70
2023-04-01T16:00:27.834Z,9.70
2023-04-01T16:05:40.041Z,9.80
2023-04-01T16:10:54.921Z,9.50
2023-04-01T16:16:02.851Z,9.50
2023-04-01T16:21:05.848Z,9.40
2023-04-01T16:26:10.702Z,9.50
2023-04-01T16:31:16.120Z,9.50
2023-04-01T16:36:28.227Z,9.40
2023-04-01T16:41:30.432Z,9.30
2023-04-01T16:46:36.362Z,9.40
2023-04-01T16:51:42.161Z,9.30
2023-04-01T16:56:44.733Z,9.00
2023-04-01T17:01:51.795Z,8.90
2023-04-01T17:06:57.490Z,8.70
2023-04-01T17:12:02.940Z,8.60
2023-04-01T17:17:31.235Z,8.50
2023-04-01T17:22:36.269Z,8.60
2023-04-01T17:27:44.069Z,8.50
2023-04-01T17:32:54.380Z,8.60
2023-04-01T17:38:01.941Z,8.40
2023-04-01T17:43:10.747Z,8.40
2023-04-01T17:48:23.491Z,8.20
2023-04-01T17:53:32.515Z,8.10
2023-04-01T17:58:36.576Z,8.10
2023-04-01T18:03:58.374Z,8.00
2023-04-01T18:09:02.446Z,7.90
2023-04-01T18:14:22.424Z,7.70
2023-04-01T18:19:32.108Z,7.80
2023-04-01T18:24:32.739Z,7.90
2023-04-01T18:29:39.488Z,7.90
2023-04-01T18:34:51.327Z,7.80
2023-04-01T18:39:54.887Z,7.70
2023-04-01T18:44:58.507Z,7.70
2023-04-01T18:50:03.672Z,7.70
2023-04-01T18:55:32.642Z,7.60
2023-04-01T19:00:38.898Z,7.70
2023-04-01T19:05:42.482Z,7.70
2023-04-01T19:10:48.806Z,7.70
2023-04-01T19:15:51.529Z,7.60
2023-04-01T19:20:58.499Z,7.50
2023-04-01T19:25:58.860Z,7.40
2023-04-01T19:30:59.921Z,7.40
2023-04-01T19:36:09.289Z,7.40
2023-04-01T19:41:23.084Z,7.30
2023-04-01T19:46:28.437Z,7.20
2023-04-01T19:51:36.129Z,7.10
2023-04-01T19:56:42.537Z,7.00
2023-04-01T20:01:47.301Z,7.00
2023-04-01T20:06:57.298Z,7.00
2023-04-01T20:12:01.288Z,7.00
2023-04-01T20:17:11.319Z,7.00
2023-04-01T20:22:26.503Z,7.00
2023-04-01T20:27:28.843Z,7.10
2023-04-01T20:32:48.471Z,7.00
2023-04-01T20:37:55.715Z,6.90
2023-04-01T20:43:14.148Z,6.90
2023-04-01T20:48:39.563Z,6.70
2023-04-01T20:53:44.989Z,6.70
2023-04-01T20:58:53.865Z,6.70
2023-04-01T21:03:58.580Z,6.60
2023-04-01T21:09:11.911Z,6.60
2023-04-01T21:14:33.291Z,6.50
2023-04-01T21:19:47.305Z,6.50
2023-04-01T21:25:04.205Z,6.40
2023-04-01T21:30:14.669Z,6.30
2023-04-01T21:35:25.756Z,6.20
2023-04-01T21:41:03.112Z,6.10
2023-04-01T21:46:26.768Z,6.00
2023-04-01T21:52:17.098Z,6.10
2023-04-01T21:57:45.017Z,6.00
2023-04-01T22:03:27.434Z,6.00
2023-04-01T22:08:52.840Z,5.90
2023-04-01T22:13:55.299Z,5.90
2023-04-01T22:19:05.561Z,5.90
2023-04-01T22:24:12.146Z,5.90
2023-04-01T22:29:18.090Z,5.90
2023-04-01T22:34:22.873Z,5.90
2023-04-01T22:39:33.033Z,5.90
2023-04-01T22:44:46.172Z,5.80
2023-04-01T22:49:49.506Z,5.80
2023-04-01T22:54:50.923Z,5.70
2023-04-01T22:59:55.060Z,5.70
2023-04-01T23:04:58.784Z,5.80
2023-04-01T23:09:59.268Z,5.90
2023-04-01T23:15:00.358Z,5.90
2023-04-01T23:20:09.661Z,5.90
2023-04-01T23:25:25.845Z,5.80
2023-04-01T23:30:49.531Z,5.80
2023-04-01T23:35:51.164Z,5.70
2023-04-01T23:40:52.293Z,5.80
2023-04-01T23:45:50.527Z,5.80
2023-04-01T23:50:50.233Z,5.80
2023-04-01T23:55:49.057Z,5.80
